sensor_id;sensor_type;location;lat;lon;timestamp;pressure;altitude;pressure_sealevel;temperature;humidity
23281;BME280;11809;56.390;-3.266;2023-04-29T00:01:30;101482.22;;;16.51;53.52
23281;BME280;11809;56.390;-3.266;2023-04-29T00:03:57;101484.97;;;16.50;53.84
23281;BME280;11809;56.390;-3.266;2023-04-29T00:06:25;101490.44;;;16.47;53.73
23281;BME280;11809;56.390;-3.266;2023-04-29T00:08:52;101488.72;;;16.46;53.75
23281;BME280;11809;56.390;-3.266;2023-04-29T00:11:19;101488.81;;;16.44;53.98
23281;BME280;11809;56.390;-3.266;2023-04-29T00:13:46;101488.00;;;16.42;53.84
23281;BME280;11809;56.390;-3.266;2023-04-29T00:16:13;101492.63;;;16.38;53.87
23281;BME280;11809;56.390;-3.266;2023-04-29T00:18:40;101501.44;;;16.39;53.88
23281;BME280;11809;56.390;-3.266;2023-04-29T00:21:08;101491.84;;;16.36;53.90
23281;BME280;11809;56.390;-3.266;2023-04-29T00:23:35;101494.50;;;16.36;53.82
23281;BME280;11809;56.390;-3.266;2023-04-29T00:26:02;101495.47;;;16.34;54.02
23281;BME280;11809;56.390;-3.266;2023-04-29T00:28:29;101501.66;;;16.34;53.96
23281;BME280;11809;56.390;-3.266;2023-04-29T00:30:56;101514.16;;;16.32;53.99
23281;BME280;11809;56.390;-3.266;2023-04-29T00:33:23;101506.34;;;16.29;54.19
23281;BME280;11809;56.390;-3.266;2023-04-29T00:35:51;101508.13;;;16.29;54.13
23281;BME280;11809;56.390;-3.266;2023-04-29T00:38:18;101501.97;;;16.28;54.09
23281;BME280;11809;56.390;-3.266;2023-04-29T00:40:47;101503.78;;;16.28;54.27
23281;BME280;11809;56.390;-3.266;2023-04-29T00:43:14;101514.59;;;16.23;54.39
23281;BME280;11809;56.390;-3.266;2023-04-29T00:45:41;101512.81;;;16.24;54.19
23281;BME280;11809;56.390;-3.266;2023-04-29T00:48:08;101507.72;;;16.19;54.43
23281;BME280;11809;56.390;-3.266;2023-04-29T00:50:35;101517.41;;;16.20;54.41
23281;BME280;11809;56.390;-3.266;2023-04-29T00:53:03;101518.34;;;16.19;54.37
23281;BME280;11809;56.390;-3.266;2023-04-29T00:55:32;101518.34;;;16.19;54.42
23281;BME280;11809;56.390;-3.266;2023-04-29T00:57:59;101521.13;;;16.16;54.59
23281;BME280;11809;56.390;-3.266;2023-04-29T01:00:29;101525.59;;;16.16;54.58
23281;BME280;11809;56.390;-3.266;2023-04-29T01:02:57;101522.25;;;16.12;54.61
23281;BME280;11809;56.390;-3.266;2023-04-29T01:05:25;101534.53;;;16.13;54.53
23281;BME280;11809;56.390;-3.266;2023-04-29T01:08:27;101532.84;;;16.12;54.50
23281;BME280;11809;56.390;-3.266;2023-04-29T01:13:45;101533.84;;;16.10;54.55
23281;BME280;11809;56.390;-3.266;2023-04-29T01:16:29;101535.69;;;16.08;54.80
23281;BME280;11809;56.390;-3.266;2023-04-29T01:19:05;101532.28;;;16.06;54.64
23281;BME280;11809;56.390;-3.266;2023-04-29T01:21:46;101530.63;;;16.03;54.73
23281;BME280;11809;56.390;-3.266;2023-04-29T01:24:15;101532.38;;;16.04;54.75
23281;BME280;11809;56.390;-3.266;2023-04-29T01:26:53;101531.56;;;16.02;54.83
23281;BME280;11809;56.390;-3.266;2023-04-29T01:29:43;101534.38;;;15.99;54.88
23281;BME280;11809;56.390;-3.266;2023-04-29T01:32:16;101542.34;;;15.99;54.92
23281;BME280;11809;56.390;-3.266;2023-04-29T01:35:02;101537.03;;;15.99;55.01
23281;BME280;11809;56.390;-3.266;2023-04-29T01:37:37;101537.81;;;16.01;54.72
23281;BME280;11809;56.390;-3.266;2023-04-29T01:40:29;101526.44;;;15.99;54.98
23281;BME280;11809;56.390;-3.266;2023-04-29T01:43:01;101530.91;;;15.97;55.01
23281;BME280;11809;56.390;-3.266;2023-04-29T01:45:31;101542.47;;;15.96;54.78
23281;BME280;11809;56.390;-3.266;2023-04-29T01:48:00;101540.88;;;15.92;54.82
23281;BME280;11809;56.390;-3.266;2023-04-29T01:50:28;101549.63;;;15.94;55.01
23281;BME280;11809;56.390;-3.266;2023-04-29T01:52:56;101543.47;;;15.94;55.16
23281;BME280;11809;56.390;-3.266;2023-04-29T01:55:23;101554.91;;;15.94;55.07
23281;BME280;11809;56.390;-3.266;2023-04-29T01:57:50;101554.16;;;15.92;54.94
23281;BME280;11809;56.390;-3.266;2023-04-29T02:00:17;101555.09;;;15.91;55.04
23281;BME280;11809;56.390;-3.266;2023-04-29T02:02:44;101557.75;;;15.91;55.02
23281;BME280;11809;56.390;-3.266;2023-04-29T02:05:11;101558.53;;;15.93;54.94
23281;BME280;11809;56.390;-3.266;2023-04-29T02:07:38;101560.31;;;15.93;54.90
23281;BME280;11809;56.390;-3.266;2023-04-29T02:10:05;101562.09;;;15.92;55.13
23281;BME280;11809;56.390;-3.266;2023-04-29T02:12:33;101550.81;;;15.89;55.01
23281;BME280;11809;56.390;-3.266;2023-04-29T02:15:00;101560.41;;;15.91;55.00
23281;BME280;11809;56.390;-3.266;2023-04-29T02:17:27;101553.38;;;15.90;55.01
23281;BME280;11809;56.390;-3.266;2023-04-29T02:19:54;101556.94;;;15.89;54.94
23281;BME280;11809;56.390;-3.266;2023-04-29T02:22:21;101564.88;;;15.89;55.24
23281;BME280;11809;56.390;-3.266;2023-04-29T02:24:48;101555.25;;;15.88;55.09
23281;BME280;11809;56.390;-3.266;2023-04-29T02:27:15;101550.22;;;15.82;55.24
23281;BME280;11809;56.390;-3.266;2023-04-29T02:29:42;101555.28;;;15.87;55.07
23281;BME280;11809;56.390;-3.266;2023-04-29T02:32:09;101562.38;;;15.86;55.13
23281;BME280;11809;56.390;-3.266;2023-04-29T02:34:37;101565.13;;;15.85;55.12
23281;BME280;11809;56.390;-3.266;2023-04-29T02:37:04;101565.97;;;15.85;54.94
23281;BME280;11809;56.390;-3.266;2023-04-29T02:39:31;101576.59;;;15.85;54.97
23281;BME280;11809;56.390;-3.266;2023-04-29T02:41:58;101569.56;;;15.84;55.05
23281;BME280;11809;56.390;-3.266;2023-04-29T02:44:25;101572.19;;;15.84;55.02
23281;BME280;11809;56.390;-3.266;2023-04-29T02:46:52;101565.97;;;15.85;55.02
23281;BME280;11809;56.390;-3.266;2023-04-29T02:49:19;101560.75;;;15.84;55.02
23281;BME280;11809;56.390;-3.266;2023-04-29T02:51:47;101569.50;;;15.86;54.95
23281;BME280;11809;56.390;-3.266;2023-04-29T02:54:15;101569.50;;;15.86;55.07
23281;BME280;11809;56.390;-3.266;2023-04-29T02:56:43;101567.78;;;15.85;54.94
23281;BME280;11809;56.390;-3.266;2023-04-29T02:59:09;101575.63;;;15.86;55.02
23281;BME280;11809;56.390;-3.266;2023-04-29T03:01:36;101574.84;;;15.84;54.94
23281;BME280;11809;56.390;-3.266;2023-04-29T03:04:04;101582.75;;;15.86;54.86
23281;BME280;11809;56.390;-3.266;2023-04-29T03:06:32;101584.53;;;15.85;55.11
23281;BME280;11809;56.390;-3.266;2023-04-29T03:08:59;101591.53;;;15.86;55.28
23281;BME280;11809;56.390;-3.266;2023-04-29T03:11:26;101581.94;;;15.84;55.10
23281;BME280;11809;56.390;-3.266;2023-04-29T03:13:53;101586.47;;;15.82;55.15
23281;BME280;11809;56.390;-3.266;2023-04-29T03:16:21;101590.91;;;15.81;54.96
23281;BME280;11809;56.390;-3.266;2023-04-29T03:18:48;101587.47;;;15.79;55.18
23281;BME280;11809;56.390;-3.266;2023-04-29T03:21:15;101587.47;;;15.79;55.21
23281;BME280;11809;56.390;-3.266;2023-04-29T03:23:43;101604.25;;;15.80;55.08
23281;BME280;11809;56.390;-3.266;2023-04-29T03:26:10;101598.22;;;15.76;55.14
23281;BME280;11809;56.390;-3.266;2023-04-29T03:28:37;101607.03;;;15.76;54.95
23281;BME280;11809;56.390;-3.266;2023-04-29T03:31:04;101608.75;;;15.77;55.12
23281;BME280;11809;56.390;-3.266;2023-04-29T03:33:31;101610.59;;;15.75;54.97
23281;BME280;11809;56.390;-3.266;2023-04-29T03:35:59;101611.41;;;15.77;55.00
23281;BME280;11809;56.390;-3.266;2023-04-29T03:38:25;101621.13;;;15.77;55.24
23281;BME280;11809;56.390;-3.266;2023-04-29T03:40:52;101620.22;;;15.78;55.34
23281;BME280;11809;56.390;-3.266;2023-04-29T03:43:19;101613.97;;;15.79;55.13
23281;BME280;11809;56.390;-3.266;2023-04-29T03:45:46;101614.84;;;15.80;55.24
23281;BME280;11809;56.390;-3.266;2023-04-29T03:48:14;101615.69;;;15.80;55.10
23281;BME280;11809;56.390;-3.266;2023-04-29T03:50:41;101613.06;;;15.80;55.30
23281;BME280;11809;56.390;-3.266;2023-04-29T03:53:08;101614.06;;;15.77;55.22
23281;BME280;11809;56.390;-3.266;2023-04-29T03:55:35;101621.88;;;15.81;55.05
23281;BME280;11809;56.390;-3.266;2023-04-29T03:58:02;101627.22;;;15.79;55.29
23281;BME280;11809;56.390;-3.266;2023-04-29T04:00:29;101630.75;;;15.80;55.18
23281;BME280;11809;56.390;-3.266;2023-04-29T04:02:57;101633.31;;;15.81;55.08
23281;BME280;11809;56.390;-3.266;2023-04-29T04:05:25;101628.00;;;15.81;55.35
23281;BME280;11809;56.390;-3.266;2023-04-29T04:07:53;101629.81;;;15.81;55.17
23281;BME280;11809;56.390;-3.266;2023-04-29T04:10:19;101629.88;;;15.79;55.33
23281;BME280;11809;56.390;-3.266;2023-04-29T04:12:46;101630.81;;;15.78;55.23
23281;BME280;11809;56.390;-3.266;2023-04-29T04:15:14;101632.66;;;15.76;54.89
23281;BME280;11809;56.390;-3.266;2023-04-29T04:17:42;101626.50;;;15.75;55.26
23281;BME280;11809;56.390;-3.266;2023-04-29T04:20:10;101635.19;;;15.79;55.35
23281;BME280;11809;56.390;-3.266;2023-04-29T04:22:37;101626.34;;;15.78;55.24
23281;BME280;11809;56.390;-3.266;2023-04-29T04:25:04;101621.91;;;15.79;55.56
23281;BME280;11809;56.390;-3.266;2023-04-29T04:27:31;101627.22;;;15.79;55.21
23281;BME280;11809;56.390;-3.266;2023-04-29T04:29:58;101625.53;;;15.78;54.99
23281;BME280;11809;56.390;-3.266;2023-04-29T04:32:25;101626.31;;;15.80;55.43
23281;BME280;11809;56.390;-3.266;2023-04-29T04:34:52;101629.88;;;15.79;54.98
23281;BME280;11809;56.390;-3.266;2023-04-29T04:37:19;101633.47;;;15.78;55.07
23281;BME280;11809;56.390;-3.266;2023-04-29T04:39:46;101639.59;;;15.78;55.55
23281;BME280;11809;56.390;-3.266;2023-04-29T04:42:13;101645.78;;;15.79;55.32
23281;BME280;11809;56.390;-3.266;2023-04-29T04:44:40;101638.78;;;15.78;54.62
23281;BME280;11809;56.390;-3.266;2023-04-29T04:47:07;101646.78;;;15.76;55.34
23281;BME280;11809;56.390;-3.266;2023-04-29T04:49:34;101648.50;;;15.77;55.26
23281;BME280;11809;56.390;-3.266;2023-04-29T04:52:01;101660.81;;;15.78;55.17
23281;BME280;11809;56.390;-3.266;2023-04-29T04:54:28;101667.84;;;15.80;55.09
23281;BME280;11809;56.390;-3.266;2023-04-29T04:56:55;101662.69;;;15.36;52.03
23281;BME280;11809;56.390;-3.266;2023-04-29T04:59:22;101665.69;;;15.29;52.66
23281;BME280;11809;56.390;-3.266;2023-04-29T05:01:49;101667.59;;;15.45;54.39
23281;BME280;11809;56.390;-3.266;2023-04-29T05:04:16;101663.56;;;15.57;54.91
23281;BME280;11809;56.390;-3.266;2023-04-29T05:06:44;101669.38;;;15.65;54.63
23281;BME280;11809;56.390;-3.266;2023-04-29T05:09:12;101670.97;;;15.69;54.87
23281;BME280;11809;56.390;-3.266;2023-04-29T05:11:39;101674.41;;;15.71;54.97
23281;BME280;11809;56.390;-3.266;2023-04-29T05:14:07;101676.16;;;15.72;54.80
23281;BME280;11809;56.390;-3.266;2023-04-29T05:16:34;101677.84;;;15.73;54.83
23281;BME280;11809;56.390;-3.266;2023-04-29T05:19:01;101685.44;;;15.62;52.89
23281;BME280;11809;56.390;-3.266;2023-04-29T05:21:29;101691.72;;;15.19;51.26
23281;BME280;11809;56.390;-3.266;2023-04-29T05:23:57;101709.63;;;14.92;51.21
23281;BME280;11809;56.390;-3.266;2023-04-29T05:26:24;101710.50;;;14.71;51.07
23281;BME280;11809;56.390;-3.266;2023-04-29T05:28:51;101703.22;;;14.76;51.10
23281;BME280;11809;56.390;-3.266;2023-04-29T05:31:18;101702.69;;;14.88;51.74
23281;BME280;11809;56.390;-3.266;2023-04-29T05:33:45;101702.00;;;15.05;52.09
23281;BME280;11809;56.390;-3.266;2023-04-29T05:36:12;101695.47;;;15.13;52.61
23281;BME280;11809;56.390;-3.266;2023-04-29T05:38:39;101691.75;;;15.17;52.75
23281;BME280;11809;56.390;-3.266;2023-04-29T05:41:06;101691.63;;;15.21;52.80
23281;BME280;11809;56.390;-3.266;2023-04-29T05:43:33;101693.38;;;15.22;53.10
23281;BME280;11809;56.390;-3.266;2023-04-29T05:46:02;101703.84;;;15.25;53.23
23281;BME280;11809;56.390;-3.266;2023-04-29T05:48:29;101714.56;;;15.22;53.32
23281;BME280;11809;56.390;-3.266;2023-04-29T05:50:56;101702.88;;;15.26;53.48
23281;BME280;11809;56.390;-3.266;2023-04-29T05:53:23;101708.00;;;15.30;53.68
23281;BME280;11809;56.390;-3.266;2023-04-29T05:55:50;101700.78;;;15.34;53.77
23281;BME280;11809;56.390;-3.266;2023-04-29T05:58:17;101704.22;;;15.36;53.79
23281;BME280;11809;56.390;-3.266;2023-04-29T06:00:44;101705.28;;;15.32;53.93
23281;BME280;11809;56.390;-3.266;2023-04-29T06:03:11;101701.63;;;15.34;53.67
23281;BME280;11809;56.390;-3.266;2023-04-29T06:05:38;101701.75;;;15.31;53.78
23281;BME280;11809;56.390;-3.266;2023-04-29T06:08:06;101705.06;;;15.36;54.45
23281;BME280;11809;56.390;-3.266;2023-04-29T06:10:33;101706.06;;;15.34;54.75
23281;BME280;11809;56.390;-3.266;2023-04-29T06:13:02;101709.50;;;15.36;54.05
23281;BME280;11809;56.390;-3.266;2023-04-29T06:15:30;101709.50;;;15.36;54.03
23281;BME280;11809;56.390;-3.266;2023-04-29T06:17:57;101716.63;;;15.35;54.02
23281;BME280;11809;56.390;-3.266;2023-04-29T06:20:24;101722.75;;;15.36;53.97
23281;BME280;11809;56.390;-3.266;2023-04-29T06:22:51;101712.31;;;15.33;53.87
23281;BME280;11809;56.390;-3.266;2023-04-29T06:25:18;101713.88;;;15.37;53.77
23281;BME280;11809;56.390;-3.266;2023-04-29T06:27:45;101722.69;;;15.37;53.83
23281;BME280;11809;56.390;-3.266;2023-04-29T06:30:12;101736.94;;;15.35;53.93
23281;BME280;11809;56.390;-3.266;2023-04-29T06:32:39;101726.22;;;15.38;53.67
23281;BME280;11809;56.390;-3.266;2023-04-29T06:35:07;101734.94;;;15.40;53.59
23281;BME280;11809;56.390;-3.266;2023-04-29T06:37:34;101744.75;;;15.38;53.96
23281;BME280;11809;56.390;-3.266;2023-04-29T06:40:04;101737.06;;;15.32;54.25
23281;BME280;11809;56.390;-3.266;2023-04-29T06:42:31;101744.22;;;15.30;54.38
23281;BME280;11809;56.390;-3.266;2023-04-29T06:44:59;101747.00;;;15.27;54.38
23281;BME280;11809;56.390;-3.266;2023-04-29T06:47:26;101742.69;;;15.24;54.56
23281;BME280;11809;56.390;-3.266;2023-04-29T06:49:54;101748.00;;;15.24;55.02
23281;BME280;11809;56.390;-3.266;2023-04-29T06:52:21;101753.75;;;15.34;55.38
23281;BME280;11809;56.390;-3.266;2023-04-29T06:54:48;101754.41;;;15.39;55.25
23281;BME280;11809;56.390;-3.266;2023-04-29T06:57:15;101762.34;;;15.39;55.16
23281;BME280;11809;56.390;-3.266;2023-04-29T06:59:43;101769.25;;;15.43;55.06
23281;BME280;11809;56.390;-3.266;2023-04-29T07:02:10;101777.00;;;15.49;55.33
23281;BME280;11809;56.390;-3.266;2023-04-29T07:04:37;101789.97;;;15.55;55.49
23281;BME280;11809;56.390;-3.266;2023-04-29T07:07:04;101794.13;;;15.60;55.86
23281;BME280;11809;56.390;-3.266;2023-04-29T07:09:32;101787.84;;;15.63;55.54
23281;BME280;11809;56.390;-3.266;2023-04-29T07:12:00;101790.38;;;15.66;55.29
23281;BME280;11809;56.390;-3.266;2023-04-29T07:14:28;101786.84;;;15.65;54.84
23281;BME280;11809;56.390;-3.266;2023-04-29T07:16:55;101801.06;;;15.43;52.47
23281;BME280;11809;56.390;-3.266;2023-04-29T07:19:22;101804.72;;;15.39;53.18
23281;BME280;11809;56.390;-3.266;2023-04-29T07:21:49;101798.03;;;15.52;54.26
23281;BME280;11809;56.390;-3.266;2023-04-29T07:24:16;101798.44;;;15.63;54.14
23281;BME280;11809;56.390;-3.266;2023-04-29T07:26:43;101797.19;;;15.71;54.12
23281;BME280;11809;56.390;-3.266;2023-04-29T07:29:11;101802.25;;;15.77;54.37
23281;BME280;11809;56.390;-3.266;2023-04-29T07:31:38;101811.72;;;15.83;54.24
23281;BME280;11809;56.390;-3.266;2023-04-29T07:34:05;101801.81;;;15.87;54.24
23281;BME280;11809;56.390;-3.266;2023-04-29T07:36:32;101799.81;;;15.92;54.08
23281;BME280;11809;56.390;-3.266;2023-04-29T07:39:02;101791.81;;;15.93;53.96
23281;BME280;11809;56.390;-3.266;2023-04-29T07:41:30;101797.00;;;15.96;54.03
23281;BME280;11809;56.390;-3.266;2023-04-29T07:43:57;101806.59;;;15.99;53.97
23281;BME280;11809;56.390;-3.266;2023-04-29T07:46:24;101805.59;;;16.01;53.86
23281;BME280;11809;56.390;-3.266;2023-04-29T07:48:51;101801.09;;;16.03;53.87
23281;BME280;11809;56.390;-3.266;2023-04-29T07:51:18;101803.59;;;16.06;53.94
23281;BME280;11809;56.390;-3.266;2023-04-29T07:53:45;101807.03;;;16.08;53.49
23281;BME280;11809;56.390;-3.266;2023-04-29T07:56:12;101809.78;;;16.07;53.22
23281;BME280;11809;56.390;-3.266;2023-04-29T07:58:40;101808.91;;;16.06;52.97
23281;BME280;11809;56.390;-3.266;2023-04-29T08:01:10;101806.25;;;16.06;53.08
23281;BME280;11809;56.390;-3.266;2023-04-29T08:03:38;101810.69;;;16.06;52.93
23281;BME280;11809;56.390;-3.266;2023-04-29T08:06:07;101815.09;;;16.07;52.70
23281;BME280;11809;56.390;-3.266;2023-04-29T08:08:35;101817.72;;;16.07;52.59
23281;BME280;11809;56.390;-3.266;2023-04-29T08:11:02;101817.66;;;16.08;52.74
23281;BME280;11809;56.390;-3.266;2023-04-29T08:13:30;101823.81;;;16.09;52.87
23281;BME280;11809;56.390;-3.266;2023-04-29T08:15:57;101815.78;;;16.10;52.79
23281;BME280;11809;56.390;-3.266;2023-04-29T08:18:24;101823.75;;;16.10;52.51
23281;BME280;11809;56.390;-3.266;2023-04-29T08:20:51;101824.56;;;16.12;52.79
23281;BME280;11809;56.390;-3.266;2023-04-29T08:23:19;101835.09;;;16.14;52.79
23281;BME280;11809;56.390;-3.266;2023-04-29T08:25:46;101830.66;;;16.14;52.67
23281;BME280;11809;56.390;-3.266;2023-04-29T08:28:14;101828.00;;;16.14;52.34
23281;BME280;11809;56.390;-3.266;2023-04-29T08:30:41;101825.47;;;16.11;53.02
23281;BME280;11809;56.390;-3.266;2023-04-29T08:33:08;101835.09;;;16.14;53.18
23281;BME280;11809;56.390;-3.266;2023-04-29T08:35:36;101841.25;;;16.14;52.69
23281;BME280;11809;56.390;-3.266;2023-04-29T08:38:04;101839.25;;;16.19;53.10
23281;BME280;11809;56.390;-3.266;2023-04-29T08:40:40;101839.13;;;16.22;52.96
23281;BME280;11809;56.390;-3.266;2023-04-29T08:43:09;101833.81;;;16.22;52.75
23281;BME280;11809;56.390;-3.266;2023-04-29T08:45:36;101837.25;;;16.24;52.74
23281;BME280;11809;56.390;-3.266;2023-04-29T08:48:04;101840.91;;;16.22;52.69
23281;BME280;11809;56.390;-3.266;2023-04-29T08:50:40;101838.88;;;16.08;52.10
23281;BME280;11809;56.390;-3.266;2023-04-29T08:53:08;101841.47;;;16.10;51.69
23281;BME280;11809;56.390;-3.266;2023-04-29T08:55:44;101849.47;;;16.08;52.20
23281;BME280;11809;56.390;-3.266;2023-04-29T08:58:13;101854.00;;;16.06;52.57
23281;BME280;11809;56.390;-3.266;2023-04-29T09:00:42;101845.13;;;16.07;52.50
23281;BME280;11809;56.390;-3.266;2023-04-29T09:03:43;101851.59;;;16.00;52.58
23281;BME280;11809;56.390;-3.266;2023-04-29T09:06:13;101859.41;;;16.03;52.69
23281;BME280;11809;56.390;-3.266;2023-04-29T09:08:41;101860.34;;;16.02;52.99
23281;BME280;11809;56.390;-3.266;2023-04-29T09:11:09;101861.28;;;16.01;52.73
23281;BME280;11809;56.390;-3.266;2023-04-29T09:13:37;101860.34;;;16.02;53.25
23281;BME280;11809;56.390;-3.266;2023-04-29T09:16:10;101866.94;;;15.94;52.52
23281;BME280;11809;56.390;-3.266;2023-04-29T09:18:49;101866.44;;;15.84;52.85
23281;BME280;11809;56.390;-3.266;2023-04-29T09:21:25;101871.22;;;15.96;53.20
23281;BME280;11809;56.390;-3.266;2023-04-29T09:23:59;101873.72;;;15.79;52.32
23281;BME280;11809;56.390;-3.266;2023-04-29T09:26:40;101876.09;;;15.65;52.90
23281;BME280;11809;56.390;-3.266;2023-04-29T09:29:12;101877.47;;;15.53;53.14
23281;BME280;11809;56.390;-3.266;2023-04-29T09:31:42;101873.28;;;15.48;53.29
23281;BME280;11809;56.390;-3.266;2023-04-29T09:34:09;101878.78;;;15.42;53.23
23281;BME280;11809;56.390;-3.266;2023-04-29T09:36:49;101881.66;;;15.36;53.35
23281;BME280;11809;56.390;-3.266;2023-04-29T09:39:18;101882.75;;;15.32;53.46
23281;BME280;11809;56.390;-3.266;2023-04-29T09:44:30;101886.56;;;15.25;53.76
23281;BME280;11809;56.390;-3.266;2023-04-29T09:47:01;101879.66;;;15.21;53.60
23281;BME280;11809;56.390;-3.266;2023-04-29T09:49:42;101884.19;;;15.17;53.69
23281;BME280;11809;56.390;-3.266;2023-04-29T09:52:15;101882.53;;;15.14;53.23
23281;BME280;11809;56.390;-3.266;2023-04-29T09:54:46;101885.44;;;15.08;53.81
23281;BME280;11809;56.390;-3.266;2023-04-29T09:57:13;101882.78;;;15.08;53.68
23281;BME280;11809;56.390;-3.266;2023-04-29T09:59:41;101883.69;;;15.07;53.91
23281;BME280;11809;56.390;-3.266;2023-04-29T10:02:13;101885.56;;;15.05;53.84
23281;BME280;11809;56.390;-3.266;2023-04-29T10:04:46;101888.25;;;15.04;53.90
23281;BME280;11809;56.390;-3.266;2023-04-29T10:07:15;101886.56;;;15.01;54.04
23281;BME280;11809;56.390;-3.266;2023-04-29T10:09:46;101886.56;;;15.01;54.20
23281;BME280;11809;56.390;-3.266;2023-04-29T10:12:16;101892.84;;;14.99;54.07
23281;BME280;11809;56.390;-3.266;2023-04-29T10:15:22;101891.19;;;14.96;54.02
23281;BME280;11809;56.390;-3.266;2023-04-29T10:17:59;101894.81;;;14.94;54.33
23281;BME280;11809;56.390;-3.266;2023-04-29T10:20:29;101893.13;;;14.93;54.08
23281;BME280;11809;56.390;-3.266;2023-04-29T10:22:57;101890.50;;;14.91;54.28
23281;BME280;11809;56.390;-3.266;2023-04-29T10:25:25;101889.72;;;14.89;54.44
23281;BME280;11809;56.390;-3.266;2023-04-29T10:27:54;101895.00;;;14.89;54.21
23281;BME280;11809;56.390;-3.266;2023-04-29T10:30:22;101896.00;;;14.87;54.38
23281;BME280;11809;56.390;-3.266;2023-04-29T10:32:50;101892.53;;;14.85;54.37
23281;BME280;11809;56.390;-3.266;2023-04-29T10:35:21;101898.66;;;14.85;54.36
23281;BME280;11809;56.390;-3.266;2023-04-29T10:37:50;101898.75;;;14.84;54.50
23281;BME280;11809;56.390;-3.266;2023-04-29T10:40:22;101888.22;;;14.82;54.32
23281;BME280;11809;56.390;-3.266;2023-04-29T10:42:52;101889.13;;;14.81;54.57
23281;BME280;11809;56.390;-3.266;2023-04-29T10:45:23;101892.66;;;14.82;54.38
23281;BME280;11809;56.390;-3.266;2023-04-29T10:50:34;101889.19;;;14.80;54.48
23281;BME280;11809;56.390;-3.266;2023-04-29T10:53:08;101887.41;;;14.80;54.82
23281;BME280;11809;56.390;-3.266;2023-04-29T10:55:36;101889.19;;;14.80;54.64
23281;BME280;11809;56.390;-3.266;2023-04-29T10:58:04;101897.19;;;14.78;54.64
23281;BME280;11809;56.390;-3.266;2023-04-29T11:00:33;101904.25;;;14.78;54.78
23281;BME280;11809;56.390;-3.266;2023-04-29T11:03:01;101900.81;;;14.76;54.59
23281;BME280;11809;56.390;-3.266;2023-04-29T11:05:36;101901.22;;;14.65;53.34
23281;BME280;11809;56.390;-3.266;2023-04-29T11:08:22;101906.19;;;14.74;53.58
23281;BME280;11809;56.390;-3.266;2023-04-29T11:10:53;101910.72;;;14.71;53.77
23281;BME280;11809;56.390;-3.266;2023-04-29T11:13:28;101902.38;;;14.81;53.78
23281;BME280;11809;56.390;-3.266;2023-04-29T11:16:05;101902.16;;;14.87;53.60
23281;BME280;11809;56.390;-3.266;2023-04-29T11:18:34;101902.84;;;14.92;53.85
23281;BME280;11809;56.390;-3.266;2023-04-29T11:23:33;101904.63;;;14.92;53.72
23281;BME280;11809;56.390;-3.266;2023-04-29T11:26:01;101902.75;;;14.94;54.14
23281;BME280;11809;56.390;-3.266;2023-04-29T11:28:32;101894.47;;;14.80;53.04
23281;BME280;11809;56.390;-3.266;2023-04-29T11:30:59;101888.50;;;14.75;52.89
23281;BME280;11809;56.390;-3.266;2023-04-29T11:33:31;101888.97;;;14.86;53.29
23281;BME280;11809;56.390;-3.266;2023-04-29T11:35:59;101893.03;;;14.94;53.41
23281;BME280;11809;56.390;-3.266;2023-04-29T11:38:27;101894.78;;;14.95;53.63
23281;BME280;11809;56.390;-3.266;2023-04-29T11:40:55;101889.34;;;14.98;53.94
23281;BME280;11809;56.390;-3.266;2023-04-29T11:43:23;101885.78;;;14.99;54.09
23281;BME280;11809;56.390;-3.266;2023-04-29T11:45:52;101882.84;;;15.07;54.51
23281;BME280;11809;56.390;-3.266;2023-04-29T11:48:23;101886.13;;;15.13;54.79
23281;BME280;11809;56.390;-3.266;2023-04-29T11:50:53;101892.22;;;15.15;54.56
23281;BME280;11809;56.390;-3.266;2023-04-29T11:53:23;101899.09;;;15.19;54.89
23281;BME280;11809;56.390;-3.266;2023-04-29T11:55:54;101901.50;;;15.26;54.83
23281;BME280;11809;56.390;-3.266;2023-04-29T11:58:22;101900.47;;;15.30;54.69
23281;BME280;11809;56.390;-3.266;2023-04-29T12:00:50;101897.56;;;15.36;54.55
23281;BME280;11809;56.390;-3.266;2023-04-29T12:03:20;101885.94;;;15.40;54.70
23281;BME280;11809;56.390;-3.266;2023-04-29T12:05:55;101891.75;;;15.49;54.69
23281;BME280;11809;56.390;-3.266;2023-04-29T12:08:27;101898.44;;;15.59;54.32
23281;BME280;11809;56.390;-3.266;2023-04-29T12:10:55;101901.47;;;15.70;54.37
23281;BME280;11809;56.390;-3.266;2023-04-29T12:13:25;101892.34;;;15.77;53.83
23281;BME280;11809;56.390;-3.266;2023-04-29T12:15:54;101891.09;;;15.86;53.80
23281;BME280;11809;56.390;-3.266;2023-04-29T12:18:22;101893.47;;;15.92;53.74
23281;BME280;11809;56.390;-3.266;2023-04-29T12:20:49;101889.59;;;16.01;53.71
23281;BME280;11809;56.390;-3.266;2023-04-29T12:23:23;101887.56;;;16.07;53.67
23281;BME280;11809;56.390;-3.266;2023-04-29T12:25:55;101880.09;;;16.15;53.39
23281;BME280;11809;56.390;-3.266;2023-04-29T12:28:25;101882.44;;;16.23;53.06
23281;BME280;11809;56.390;-3.266;2023-04-29T12:30:54;101880.31;;;16.31;53.04
23281;BME280;11809;56.390;-3.266;2023-04-29T12:33:24;101887.13;;;16.36;52.71
23281;BME280;11809;56.390;-3.266;2023-04-29T12:35:57;101881.53;;;16.43;52.84
23281;BME280;11809;56.390;-3.266;2023-04-29T12:38:31;101882.75;;;16.56;53.15
23281;BME280;11809;56.390;-3.266;2023-04-29T12:40:59;101892.34;;;16.58;52.40
23281;BME280;11809;56.390;-3.266;2023-04-29T12:43:29;101892.22;;;16.61;52.11
23281;BME280;11809;56.390;-3.266;2023-04-29T12:46:04;101891.94;;;16.67;52.36
23281;BME280;11809;56.390;-3.266;2023-04-29T12:48:33;101890.72;;;16.74;52.13
23281;BME280;11809;56.390;-3.266;2023-04-29T12:51:01;101891.69;;;16.73;51.81
23281;BME280;11809;56.390;-3.266;2023-04-29T12:53:29;101894.38;;;16.72;51.58
23281;BME280;11809;56.390;-3.266;2023-04-29T12:55:56;101888.94;;;16.75;51.66
23281;BME280;11809;56.390;-3.266;2023-04-29T12:58:27;101890.81;;;16.73;51.73
23281;BME280;11809;56.390;-3.266;2023-04-29T13:00:57;101896.63;;;16.81;51.49